UKLL/LWO METAR and TAF weather

Enter ICAO airport designator
Station Type Date Time Source
UKLL METAR 2019/07/20 20:00 UTC NOAA

UKLL 202000Z 17001MPS 9999 BKN047 18/16 Q1019 R13/CLRD// NOSIG


Station Type Date Time Source
UKLL Decoded METAR 2019/07/20 20:00 UTC NOAA

L'Viv, Ukraine (UKLL) 49-49N 023-57E 323M
Jul 20, 2019 - 04:00 PM EDT / 2019.07.20 2000 UTC
Wind: from the S (170 degrees) at 2 MPH (2 KT):0
Visibility: greater than 7 mile(s):0
Sky conditions: mostly cloudy
Temperature: 64 F (18 C)
Dew Point: 60 F (16 C)
Relative Humidity: 88%
Pressure (altimeter): 30.09 in. Hg (1019 hPa)
ob: UKLL 202000Z 17001MPS 9999 BKN047 18/16 Q1019 R13/CLRD// NOSIG
cycle: 20

Station Type Date Time Source
UKLL TAF 2019/07/20 18:15 UTC NOAA

TAF UKLL 201703Z 2018/2118 VRB01MPS 4000 BR BKN010 TX27/2112Z TN16/2103Z
TEMPO 2018/2021 VRB06G12MPS 2100 -TSRAGR SCT003 BKN007 BKN025CB
TEMPO 2021/2105 0400 FG VV002
BECMG 2105/2107 23003MPS 9999 NSW BKN025 SCT030CB
TEMPO 2112/2118 VRB09G16MPS 2100 -TSRAGR BKN007 BKN020CB

Example: see airport list